sensor_id;sensor_type;location;lat;lon;timestamp;P1;durP1;ratioP1;P2;durP2;ratioP2
75311;SDS011;63906;55.686;37.532;2023-02-03T00:00:42;29.05;;;11.25;;
75311;SDS011;63906;55.686;37.532;2023-02-03T00:05:42;29.23;;;12.02;;
75311;SDS011;63906;55.686;37.532;2023-02-03T00:10:43;28.80;;;11.23;;
75311;SDS011;63906;55.686;37.532;2023-02-03T00:15:44;39.22;;;16.90;;
75311;SDS011;63906;55.686;37.532;2023-02-03T00:20:45;25.00;;;11.93;;
75311;SDS011;63906;55.686;37.532;2023-02-03T00:25:45;22.98;;;10.60;;
75311;SDS011;63906;55.686;37.532;2023-02-03T00:30:46;35.58;;;13.48;;
75311;SDS011;63906;55.686;37.532;2023-02-03T00:35:46;25.23;;;11.35;;
75311;SDS011;63906;55.686;37.532;2023-02-03T00:40:50;25.52;;;10.05;;
75311;SDS011;63906;55.686;37.532;2023-02-03T00:45:52;36.28;;;18.30;;
75311;SDS011;63906;55.686;37.532;2023-02-03T00:50:53;29.73;;;13.03;;
75311;SDS011;63906;55.686;37.532;2023-02-03T00:55:53;37.70;;;16.85;;
75311;SDS011;63906;55.686;37.532;2023-02-03T01:00:54;29.80;;;12.57;;
75311;SDS011;63906;55.686;37.532;2023-02-03T01:11:21;37.40;;;15.10;;
75311;SDS011;63906;55.686;37.532;2023-02-03T01:16:24;39.28;;;18.17;;
75311;SDS011;63906;55.686;37.532;2023-02-03T01:21:24;39.10;;;14.88;;
75311;SDS011;63906;55.686;37.532;2023-02-03T01:26:25;35.25;;;13.30;;
75311;SDS011;63906;55.686;37.532;2023-02-03T01:36:29;30.90;;;11.43;;
75311;SDS011;63906;55.686;37.532;2023-02-03T01:41:32;36.30;;;14.63;;
75311;SDS011;63906;55.686;37.532;2023-02-03T01:46:46;44.50;;;17.67;;
75311;SDS011;63906;55.686;37.532;2023-02-03T01:51:48;35.50;;;13.40;;
75311;SDS011;63906;55.686;37.532;2023-02-03T01:56:50;22.25;;;7.97;;
75311;SDS011;63906;55.686;37.532;2023-02-03T02:01:54;38.58;;;15.85;;
75311;SDS011;63906;55.686;37.532;2023-02-03T02:06:56;26.75;;;10.85;;
75311;SDS011;63906;55.686;37.532;2023-02-03T02:11:58;44.03;;;16.77;;
75311;SDS011;63906;55.686;37.532;2023-02-03T02:17:03;19.10;;;7.82;;
75311;SDS011;63906;55.686;37.532;2023-02-03T02:22:22;16.02;;;5.03;;
75311;SDS011;63906;55.686;37.532;2023-02-03T02:33:00;38.22;;;16.25;;
75311;SDS011;63906;55.686;37.532;2023-02-03T02:38:14;24.45;;;9.38;;
75311;SDS011;63906;55.686;37.532;2023-02-03T02:43:52;35.65;;;14.88;;
75311;SDS011;63906;55.686;37.532;2023-02-03T02:54:32;22.67;;;7.97;;
75311;SDS011;63906;55.686;37.532;2023-02-03T02:59:38;26.67;;;10.13;;
75311;SDS011;63906;55.686;37.532;2023-02-03T03:04:38;37.28;;;14.20;;
75311;SDS011;63906;55.686;37.532;2023-02-03T03:09:53;23.13;;;9.23;;
75311;SDS011;63906;55.686;37.532;2023-02-03T03:15:07;31.98;;;12.57;;
75311;SDS011;63906;55.686;37.532;2023-02-03T03:20:18;39.70;;;15.40;;
75311;SDS011;63906;55.686;37.532;2023-02-03T03:25:25;33.03;;;11.95;;
75311;SDS011;63906;55.686;37.532;2023-02-03T03:30:32;31.25;;;12.13;;
75311;SDS011;63906;55.686;37.532;2023-02-03T03:35:39;33.03;;;12.10;;
75311;SDS011;63906;55.686;37.532;2023-02-03T03:40:52;23.60;;;9.65;;
75311;SDS011;63906;55.686;37.532;2023-02-03T03:51:24;34.63;;;12.68;;
75311;SDS011;63906;55.686;37.532;2023-02-03T03:56:32;31.50;;;11.00;;
75311;SDS011;63906;55.686;37.532;2023-02-03T04:01:52;26.75;;;10.27;;
75311;SDS011;63906;55.686;37.532;2023-02-03T04:06:52;35.92;;;13.40;;
75311;SDS011;63906;55.686;37.532;2023-02-03T04:11:54;30.50;;;11.40;;
75311;SDS011;63906;55.686;37.532;2023-02-03T04:17:00;29.05;;;11.38;;
75311;SDS011;63906;55.686;37.532;2023-02-03T04:22:01;13.38;;;5.60;;
75311;SDS011;63906;55.686;37.532;2023-02-03T04:27:01;24.52;;;9.88;;
75311;SDS011;63906;55.686;37.532;2023-02-03T04:32:02;22.25;;;8.55;;
75311;SDS011;63906;55.686;37.532;2023-02-03T04:37:02;30.80;;;13.50;;
75311;SDS011;63906;55.686;37.532;2023-02-03T04:42:03;19.38;;;8.55;;
75311;SDS011;63906;55.686;37.532;2023-02-03T04:47:04;23.70;;;9.60;;
75311;SDS011;63906;55.686;37.532;2023-02-03T04:52:04;25.17;;;9.87;;
75311;SDS011;63906;55.686;37.532;2023-02-03T04:57:06;24.02;;;9.52;;
75311;SDS011;63906;55.686;37.532;2023-02-03T05:02:06;19.75;;;6.72;;
75311;SDS011;63906;55.686;37.532;2023-02-03T05:07:08;17.30;;;6.32;;
75311;SDS011;63906;55.686;37.532;2023-02-03T05:12:09;14.85;;;6.78;;
75311;SDS011;63906;55.686;37.532;2023-02-03T05:17:09;19.33;;;6.55;;
75311;SDS011;63906;55.686;37.532;2023-02-03T05:22:10;17.48;;;6.93;;
75311;SDS011;63906;55.686;37.532;2023-02-03T05:27:11;8.48;;;3.60;;
75311;SDS011;63906;55.686;37.532;2023-02-03T05:32:11;28.02;;;11.00;;
75311;SDS011;63906;55.686;37.532;2023-02-03T05:37:12;14.90;;;6.47;;
75311;SDS011;63906;55.686;37.532;2023-02-03T05:42:12;21.60;;;8.27;;
75311;SDS011;63906;55.686;37.532;2023-02-03T05:47:13;27.50;;;10.45;;
75311;SDS011;63906;55.686;37.532;2023-02-03T05:52:13;27.53;;;10.57;;
75311;SDS011;63906;55.686;37.532;2023-02-03T05:57:14;27.30;;;9.15;;
75311;SDS011;63906;55.686;37.532;2023-02-03T06:02:14;12.27;;;4.57;;
75311;SDS011;63906;55.686;37.532;2023-02-03T06:07:15;21.23;;;8.13;;
75311;SDS011;63906;55.686;37.532;2023-02-03T06:12:15;29.48;;;10.45;;
75311;SDS011;63906;55.686;37.532;2023-02-03T06:17:16;11.48;;;5.00;;
75311;SDS011;63906;55.686;37.532;2023-02-03T06:22:16;16.85;;;6.15;;
75311;SDS011;63906;55.686;37.532;2023-02-03T06:27:17;21.15;;;8.98;;
75311;SDS011;63906;55.686;37.532;2023-02-03T06:32:18;24.75;;;10.88;;
75311;SDS011;63906;55.686;37.532;2023-02-03T06:37:18;16.70;;;7.53;;
75311;SDS011;63906;55.686;37.532;2023-02-03T06:42:19;20.45;;;7.88;;
75311;SDS011;63906;55.686;37.532;2023-02-03T06:47:19;20.58;;;7.60;;
75311;SDS011;63906;55.686;37.532;2023-02-03T06:52:20;15.55;;;5.55;;
75311;SDS011;63906;55.686;37.532;2023-02-03T06:57:20;18.02;;;5.80;;
75311;SDS011;63906;55.686;37.532;2023-02-03T07:02:21;24.00;;;8.40;;
75311;SDS011;63906;55.686;37.532;2023-02-03T07:07:22;29.73;;;10.70;;
75311;SDS011;63906;55.686;37.532;2023-02-03T07:12:23;24.00;;;9.85;;
75311;SDS011;63906;55.686;37.532;2023-02-03T07:17:23;26.30;;;10.55;;
75311;SDS011;63906;55.686;37.532;2023-02-03T07:22:24;26.55;;;9.25;;
75311;SDS011;63906;55.686;37.532;2023-02-03T07:27:24;22.90;;;10.07;;
75311;SDS011;63906;55.686;37.532;2023-02-03T07:32:27;23.45;;;9.15;;
75311;SDS011;63906;55.686;37.532;2023-02-03T07:37:27;16.67;;;6.93;;
75311;SDS011;63906;55.686;37.532;2023-02-03T07:42:27;7.85;;;2.33;;
75311;SDS011;63906;55.686;37.532;2023-02-03T07:47:28;15.75;;;6.07;;
75311;SDS011;63906;55.686;37.532;2023-02-03T07:52:29;22.15;;;7.32;;
75311;SDS011;63906;55.686;37.532;2023-02-03T07:57:29;23.40;;;8.32;;
75311;SDS011;63906;55.686;37.532;2023-02-03T08:02:30;13.10;;;5.63;;
75311;SDS011;63906;55.686;37.532;2023-02-03T08:07:30;25.13;;;10.43;;
75311;SDS011;63906;55.686;37.532;2023-02-03T08:12:31;27.40;;;9.93;;
75311;SDS011;63906;55.686;37.532;2023-02-03T08:17:31;28.88;;;10.32;;
75311;SDS011;63906;55.686;37.532;2023-02-03T08:22:35;31.73;;;12.52;;
75311;SDS011;63906;55.686;37.532;2023-02-03T08:27:36;25.23;;;10.00;;
75311;SDS011;63906;55.686;37.532;2023-02-03T08:32:37;22.77;;;7.95;;
75311;SDS011;63906;55.686;37.532;2023-02-03T08:37:38;19.05;;;8.38;;
75311;SDS011;63906;55.686;37.532;2023-02-03T08:42:39;30.88;;;12.85;;
75311;SDS011;63906;55.686;37.532;2023-02-03T08:47:39;28.15;;;12.18;;
75311;SDS011;63906;55.686;37.532;2023-02-03T08:52:40;29.02;;;10.50;;
75311;SDS011;63906;55.686;37.532;2023-02-03T08:57:41;21.42;;;6.18;;
75311;SDS011;63906;55.686;37.532;2023-02-03T09:02:41;21.85;;;9.20;;
75311;SDS011;63906;55.686;37.532;2023-02-03T09:07:42;27.30;;;10.33;;
75311;SDS011;63906;55.686;37.532;2023-02-03T09:12:42;31.98;;;12.85;;
75311;SDS011;63906;55.686;37.532;2023-02-03T09:17:43;28.33;;;13.55;;
75311;SDS011;63906;55.686;37.532;2023-02-03T09:22:43;21.33;;;8.68;;
75311;SDS011;63906;55.686;37.532;2023-02-03T09:27:44;29.65;;;10.90;;
75311;SDS011;63906;55.686;37.532;2023-02-03T09:32:44;13.25;;;4.95;;
75311;SDS011;63906;55.686;37.532;2023-02-03T09:37:48;14.98;;;6.05;;
75311;SDS011;63906;55.686;37.532;2023-02-03T09:42:57;14.40;;;6.78;;
75311;SDS011;63906;55.686;37.532;2023-02-03T09:48:02;14.93;;;6.47;;
75311;SDS011;63906;55.686;37.532;2023-02-03T09:53:18;28.67;;;10.93;;
75311;SDS011;63906;55.686;37.532;2023-02-03T09:58:20;18.15;;;7.38;;
75311;SDS011;63906;55.686;37.532;2023-02-03T10:03:43;20.58;;;8.07;;
75311;SDS011;63906;55.686;37.532;2023-02-03T10:14:14;21.17;;;9.05;;
75311;SDS011;63906;55.686;37.532;2023-02-03T10:19:52;22.77;;;11.23;;
75311;SDS011;63906;55.686;37.532;2023-02-03T10:30:30;11.52;;;4.25;;
75311;SDS011;63906;55.686;37.532;2023-02-03T10:41:02;13.07;;;5.03;;
75311;SDS011;63906;55.686;37.532;2023-02-03T10:46:03;16.63;;;7.18;;
75311;SDS011;63906;55.686;37.532;2023-02-03T10:51:04;12.98;;;5.38;;
75311;SDS011;63906;55.686;37.532;2023-02-03T10:56:26;15.30;;;5.95;;
75311;SDS011;63906;55.686;37.532;2023-02-03T11:01:39;14.77;;;6.13;;
75311;SDS011;63906;55.686;37.532;2023-02-03T11:06:48;15.10;;;7.00;;
75311;SDS011;63906;55.686;37.532;2023-02-03T11:12:02;22.50;;;9.63;;
75311;SDS011;63906;55.686;37.532;2023-02-03T11:17:20;19.83;;;10.73;;
75311;SDS011;63906;55.686;37.532;2023-02-03T11:22:29;18.00;;;8.50;;
75311;SDS011;63906;55.686;37.532;2023-02-03T11:27:33;17.70;;;8.52;;
75311;SDS011;63906;55.686;37.532;2023-02-03T11:32:34;17.40;;;8.23;;
75311;SDS011;63906;55.686;37.532;2023-02-03T11:37:38;15.88;;;6.88;;
75311;SDS011;63906;55.686;37.532;2023-02-03T11:42:41;17.20;;;8.27;;
75311;SDS011;63906;55.686;37.532;2023-02-03T11:47:51;17.35;;;9.00;;
75311;SDS011;63906;55.686;37.532;2023-02-03T11:53:25;15.07;;;9.10;;
75311;SDS011;63906;55.686;37.532;2023-02-03T11:58:35;12.52;;;6.10;;
75311;SDS011;63906;55.686;37.532;2023-02-03T12:09:27;11.52;;;5.53;;
75311;SDS011;63906;55.686;37.532;2023-02-03T12:36:31;13.90;;;6.75;;
75311;SDS011;63906;55.686;37.532;2023-02-03T12:41:39;18.05;;;10.32;;
75311;SDS011;63906;55.686;37.532;2023-02-03T12:46:51;15.60;;;8.35;;
75311;SDS011;63906;55.686;37.532;2023-02-03T12:52:31;17.25;;;7.53;;
75311;SDS011;63906;55.686;37.532;2023-02-03T13:13:33;14.73;;;8.18;;
75311;SDS011;63906;55.686;37.532;2023-02-03T13:18:40;14.25;;;5.82;;
75311;SDS011;63906;55.686;37.532;2023-02-03T13:23:45;15.93;;;9.48;;
75311;SDS011;63906;55.686;37.532;2023-02-03T13:34:15;16.70;;;8.95;;
75311;SDS011;63906;55.686;37.532;2023-02-03T13:44:34;13.15;;;5.38;;
75311;SDS011;63906;55.686;37.532;2023-02-03T13:49:38;5.22;;;2.58;;
75311;SDS011;63906;55.686;37.532;2023-02-03T13:54:45;14.20;;;5.95;;
75311;SDS011;63906;55.686;37.532;2023-02-03T13:59:45;9.50;;;4.82;;
75311;SDS011;63906;55.686;37.532;2023-02-03T14:09:59;13.90;;;6.30;;
75311;SDS011;63906;55.686;37.532;2023-02-03T14:20:39;18.73;;;7.70;;
75311;SDS011;63906;55.686;37.532;2023-02-03T14:25:42;17.70;;;8.57;;
75311;SDS011;63906;55.686;37.532;2023-02-03T14:36:24;16.73;;;7.00;;
75311;SDS011;63906;55.686;37.532;2023-02-03T14:41:33;10.57;;;4.28;;
75311;SDS011;63906;55.686;37.532;2023-02-03T14:47:08;13.02;;;6.35;;
75311;SDS011;63906;55.686;37.532;2023-02-03T14:57:47;22.52;;;10.02;;
75311;SDS011;63906;55.686;37.532;2023-02-03T15:13:32;21.17;;;10.02;;
75311;SDS011;63906;55.686;37.532;2023-02-03T15:18:34;20.35;;;8.95;;
75311;SDS011;63906;55.686;37.532;2023-02-03T15:23:40;17.23;;;8.00;;
75311;SDS011;63906;55.686;37.532;2023-02-03T15:28:42;16.75;;;7.65;;
75311;SDS011;63906;55.686;37.532;2023-02-03T15:33:42;15.75;;;8.82;;
75311;SDS011;63906;55.686;37.532;2023-02-03T15:38:45;16.48;;;7.88;;
75311;SDS011;63906;55.686;37.532;2023-02-03T15:43:53;22.05;;;9.45;;
75311;SDS011;63906;55.686;37.532;2023-02-03T15:49:13;22.40;;;11.35;;
75311;SDS011;63906;55.686;37.532;2023-02-03T15:54:30;16.20;;;8.88;;
75311;SDS011;63906;55.686;37.532;2023-02-03T15:59:45;17.70;;;9.40;;
75311;SDS011;63906;55.686;37.532;2023-02-03T16:05:02;6.78;;;2.08;;
75311;SDS011;63906;55.686;37.532;2023-02-03T16:10:05;9.63;;;4.47;;
75311;SDS011;63906;55.686;37.532;2023-02-03T16:15:19;17.42;;;8.50;;
75311;SDS011;63906;55.686;37.532;2023-02-03T16:20:25;17.55;;;7.50;;
75311;SDS011;63906;55.686;37.532;2023-02-03T16:25:31;12.88;;;5.45;;
75311;SDS011;63906;55.686;37.532;2023-02-03T16:30:33;12.85;;;5.68;;
75311;SDS011;63906;55.686;37.532;2023-02-03T16:35:55;10.82;;;4.82;;
75311;SDS011;63906;55.686;37.532;2023-02-03T16:41:16;7.70;;;3.78;;
75311;SDS011;63906;55.686;37.532;2023-02-03T16:46:35;17.45;;;7.75;;
75311;SDS011;63906;55.686;37.532;2023-02-03T16:51:55;4.22;;;2.60;;
75311;SDS011;63906;55.686;37.532;2023-02-03T16:56:55;13.75;;;5.80;;
75311;SDS011;63906;55.686;37.532;2023-02-03T17:01:56;14.48;;;5.68;;
75311;SDS011;63906;55.686;37.532;2023-02-03T17:06:56;13.50;;;5.93;;
75311;SDS011;63906;55.686;37.532;2023-02-03T17:11:57;7.75;;;4.25;;
75311;SDS011;63906;55.686;37.532;2023-02-03T17:16:57;7.77;;;3.37;;
75311;SDS011;63906;55.686;37.532;2023-02-03T17:21:58;10.93;;;4.50;;
75311;SDS011;63906;55.686;37.532;2023-02-03T17:26:59;2.60;;;1.40;;
75311;SDS011;63906;55.686;37.532;2023-02-03T17:31:59;6.05;;;2.38;;
75311;SDS011;63906;55.686;37.532;2023-02-03T17:37:00;6.10;;;2.70;;
75311;SDS011;63906;55.686;37.532;2023-02-03T17:42:00;3.90;;;1.77;;
75311;SDS011;63906;55.686;37.532;2023-02-03T17:47:01;6.85;;;2.85;;
75311;SDS011;63906;55.686;37.532;2023-02-03T17:52:03;3.33;;;1.52;;
75311;SDS011;63906;55.686;37.532;2023-02-03T17:57:03;2.83;;;1.15;;
75311;SDS011;63906;55.686;37.532;2023-02-03T18:02:04;3.40;;;1.80;;
75311;SDS011;63906;55.686;37.532;2023-02-03T18:07:05;7.68;;;3.00;;
75311;SDS011;63906;55.686;37.532;2023-02-03T18:12:05;0.55;;;0.52;;
75311;SDS011;63906;55.686;37.532;2023-02-03T18:17:06;5.60;;;2.63;;
75311;SDS011;63906;55.686;37.532;2023-02-03T18:22:07;5.47;;;3.67;;
75311;SDS011;63906;55.686;37.532;2023-02-03T18:27:08;3.40;;;1.57;;
75311;SDS011;63906;55.686;37.532;2023-02-03T18:32:08;2.20;;;1.30;;
75311;SDS011;63906;55.686;37.532;2023-02-03T18:37:09;7.00;;;3.55;;
75311;SDS011;63906;55.686;37.532;2023-02-03T18:42:11;5.43;;;1.92;;
75311;SDS011;63906;55.686;37.532;2023-02-03T18:47:11;6.55;;;3.88;;
75311;SDS011;63906;55.686;37.532;2023-02-03T18:52:12;7.15;;;3.33;;
75311;SDS011;63906;55.686;37.532;2023-02-03T18:57:12;4.45;;;3.13;;
75311;SDS011;63906;55.686;37.532;2023-02-03T19:02:14;5.10;;;2.08;;
75311;SDS011;63906;55.686;37.532;2023-02-03T19:07:15;7.00;;;3.67;;
75311;SDS011;63906;55.686;37.532;2023-02-03T19:12:21;4.95;;;2.05;;
75311;SDS011;63906;55.686;37.532;2023-02-03T19:17:24;3.13;;;1.98;;
75311;SDS011;63906;55.686;37.532;2023-02-03T19:22:26;4.93;;;2.88;;
75311;SDS011;63906;55.686;37.532;2023-02-03T19:27:26;4.13;;;1.55;;
75311;SDS011;63906;55.686;37.532;2023-02-03T19:32:27;4.25;;;2.00;;
75311;SDS011;63906;55.686;37.532;2023-02-03T19:37:28;4.63;;;2.00;;
75311;SDS011;63906;55.686;37.532;2023-02-03T19:42:28;4.40;;;2.58;;
75311;SDS011;63906;55.686;37.532;2023-02-03T19:47:29;6.03;;;3.22;;
75311;SDS011;63906;55.686;37.532;2023-02-03T19:52:29;2.75;;;1.85;;
75311;SDS011;63906;55.686;37.532;2023-02-03T19:57:30;6.10;;;4.03;;
75311;SDS011;63906;55.686;37.532;2023-02-03T20:02:31;5.72;;;2.05;;
75311;SDS011;63906;55.686;37.532;2023-02-03T20:07:31;5.80;;;3.55;;
75311;SDS011;63906;55.686;37.532;2023-02-03T20:12:32;4.25;;;2.42;;
75311;SDS011;63906;55.686;37.532;2023-02-03T20:17:33;2.47;;;1.45;;
75311;SDS011;63906;55.686;37.532;2023-02-03T20:22:33;4.90;;;2.10;;
75311;SDS011;63906;55.686;37.532;2023-02-03T20:27:34;7.78;;;3.55;;
75311;SDS011;63906;55.686;37.532;2023-02-03T20:32:35;4.82;;;2.63;;
75311;SDS011;63906;55.686;37.532;2023-02-03T20:37:36;3.67;;;2.05;;
75311;SDS011;63906;55.686;37.532;2023-02-03T20:42:36;4.40;;;2.70;;
75311;SDS011;63906;55.686;37.532;2023-02-03T20:47:37;3.65;;;1.88;;
75311;SDS011;63906;55.686;37.532;2023-02-03T20:52:37;3.72;;;2.17;;
75311;SDS011;63906;55.686;37.532;2023-02-03T20:57:38;4.20;;;2.25;;
75311;SDS011;63906;55.686;37.532;2023-02-03T21:02:39;5.10;;;2.78;;
75311;SDS011;63906;55.686;37.532;2023-02-03T21:07:58;3.75;;;2.13;;
75311;SDS011;63906;55.686;37.532;2023-02-03T21:12:59;5.10;;;2.10;;
75311;SDS011;63906;55.686;37.532;2023-02-03T21:18:00;3.47;;;2.38;;
75311;SDS011;63906;55.686;37.532;2023-02-03T21:23:01;3.00;;;2.03;;
75311;SDS011;63906;55.686;37.532;2023-02-03T21:28:01;3.53;;;2.22;;
75311;SDS011;63906;55.686;37.532;2023-02-03T21:33:05;4.97;;;2.20;;
75311;SDS011;63906;55.686;37.532;2023-02-03T21:38:36;4.60;;;2.40;;
75311;SDS011;63906;55.686;37.532;2023-02-03T21:43:37;5.38;;;2.92;;
75311;SDS011;63906;55.686;37.532;2023-02-03T21:48:38;4.53;;;2.83;;
75311;SDS011;63906;55.686;37.532;2023-02-03T21:53:39;4.05;;;2.70;;
75311;SDS011;63906;55.686;37.532;2023-02-03T21:58:43;3.60;;;2.40;;
75311;SDS011;63906;55.686;37.532;2023-02-03T22:03:47;4.00;;;2.17;;
75311;SDS011;63906;55.686;37.532;2023-02-03T22:08:51;3.80;;;1.90;;
75311;SDS011;63906;55.686;37.532;2023-02-03T22:13:54;4.18;;;2.38;;
75311;SDS011;63906;55.686;37.532;2023-02-03T22:18:55;3.83;;;2.45;;
75311;SDS011;63906;55.686;37.532;2023-02-03T22:23:56;4.43;;;2.80;;
75311;SDS011;63906;55.686;37.532;2023-02-03T22:28:57;2.47;;;1.67;;
75311;SDS011;63906;55.686;37.532;2023-02-03T22:33:57;5.30;;;2.92;;
75311;SDS011;63906;55.686;37.532;2023-02-03T22:38:58;5.18;;;2.38;;
75311;SDS011;63906;55.686;37.532;2023-02-03T22:43:58;6.20;;;3.13;;
75311;SDS011;63906;55.686;37.532;2023-02-03T22:48:59;5.05;;;3.00;;
75311;SDS011;63906;55.686;37.532;2023-02-03T22:54:00;6.32;;;3.20;;
75311;SDS011;63906;55.686;37.532;2023-02-03T22:59:00;5.43;;;2.88;;
75311;SDS011;63906;55.686;37.532;2023-02-03T23:04:01;4.38;;;2.72;;
75311;SDS011;63906;55.686;37.532;2023-02-03T23:09:01;4.70;;;2.72;;
75311;SDS011;63906;55.686;37.532;2023-02-03T23:14:02;4.38;;;2.28;;
75311;SDS011;63906;55.686;37.532;2023-02-03T23:19:05;6.00;;;4.07;;
75311;SDS011;63906;55.686;37.532;2023-02-03T23:24:09;3.07;;;1.90;;
75311;SDS011;63906;55.686;37.532;2023-02-03T23:29:10;6.47;;;3.25;;
75311;SDS011;63906;55.686;37.532;2023-02-03T23:34:11;4.90;;;2.92;;
75311;SDS011;63906;55.686;37.532;2023-02-03T23:39:33;7.78;;;3.78;;
75311;SDS011;63906;55.686;37.532;2023-02-03T23:44:33;6.68;;;2.92;;
75311;SDS011;63906;55.686;37.532;2023-02-03T23:49:35;6.53;;;3.63;;
75311;SDS011;63906;55.686;37.532;2023-02-03T23:54:48;6.60;;;3.75;;
75311;SDS011;63906;55.686;37.532;2023-02-03T23:59:56;6.90;;;3.33;;
